Time;durP1;ratioP1;P1;durP2;ratioP2;P2;SDS_P1;SDS_P2;PMS_P1;PMS_P2;Temp;Humidity;BMP_temperature;BMP_pressure;BME280_temperature;BME280_humidity;BME280_pressure;Samples;Min_cycle;Max_cycle;Signal;HPM_P1;HPM_P2
2023/06/13 00:01:00;;;;;;;11.35;4.63;;;;;;;;;;5035207;28;93468;-70
2023/06/13 00:03:29;;;;;;;7.68;4.15;;;;;;;;;;5038353;28;92890;-70
2023/06/13 00:05:56;;;;;;;10.45;4.40;;;;;;;;;;5035281;27;93485;-70
2023/06/13 00:08:24;;;;;;;20.23;4.70;;;;;;;;;;5034668;28;92733;-70
2023/06/13 00:10:51;;;;;;;19.50;5.95;;;;;;;;;;5035309;28;93644;-71
2023/06/13 00:13:17;;;;;;;29.10;5.90;;;;;;;;;;5035166;28;92751;-70
2023/06/13 00:15:48;;;;;;;39.17;5.47;;;;;;;;;;5035105;28;92520;-70
2023/06/13 00:18:15;;;;;;;11.75;4.45;;;;;;;;;;5034748;28;93417;-70
2023/06/13 00:20:41;;;;;;;13.75;4.75;;;;;;;;;;5033159;28;96325;-70
2023/06/13 00:23:08;;;;;;;9.20;4.50;;;;;;;;;;5034805;27;92412;-70
2023/06/13 00:25:35;;;;;;;7.07;4.65;;;;;;;;;;5037391;28;93279;-70
2023/06/13 00:28:01;;;;;;;7.38;4.35;;;;;;;;;;5034949;28;92474;-70
2023/06/13 00:30:27;;;;;;;8.88;4.60;;;;;;;;;;5034791;28;93505;-70
2023/06/13 00:32:54;;;;;;;12.93;4.70;;;;;;;;;;5034857;27;93585;-70
2023/06/13 00:35:21;;;;;;;6.15;4.40;;;;;;;;;;5034749;27;92472;-70
2023/06/13 00:37:54;;;;;;;15.40;4.65;;;;;;;;;;5034945;27;94513;-70
2023/06/13 00:40:20;;;;;;;7.45;4.82;;;;;;;;;;5034476;27;93653;-70
2023/06/13 00:42:47;;;;;;;13.63;4.85;;;;;;;;;;5034754;28;92454;-70
2023/06/13 00:45:17;;;;;;;9.25;5.15;;;;;;;;;;5036390;28;95891;-70
2023/06/13 00:47:45;;;;;;;10.65;4.80;;;;;;;;;;5016806;28;92502;-70
2023/06/13 00:50:12;;;;;;;17.77;5.75;;;;;;;;;;5034457;28;92418;-70
2023/06/13 00:52:39;;;;;;;7.53;5.07;;;;;;;;;;5034036;27;93494;-70
2023/06/13 00:55:06;;;;;;;8.55;4.88;;;;;;;;;;5035195;28;92635;-70
2023/06/13 00:57:33;;;;;;;9.25;4.47;;;;;;;;;;5034856;28;94241;-71
2023/06/13 01:00:04;;;;;;;;;;;;;;;;;;5017204;28;93397;-69
2023/06/13 01:02:30;;;;;;;8.18;5.07;;;;;;;;;;5035763;28;116713;-69
2023/06/13 01:04:57;;;;;;;8.93;5.55;;;;;;;;;;5034562;28;92713;-69
2023/06/13 01:07:29;;;;;;;9.13;5.40;;;;;;;;;;5037680;28;94776;-69
2023/06/13 01:09:56;;;;;;;10.18;5.05;;;;;;;;;;5032777;28;94841;-69
2023/06/13 01:12:27;;;;;;;6.10;4.82;;;;;;;;;;5034066;28;93464;-69
2023/06/13 01:14:57;;;;;;;7.45;5.22;;;;;;;;;;5016343;28;92474;-69
2023/06/13 01:17:27;;;;;;;14.40;5.40;;;;;;;;;;5034061;27;93317;-71
2023/06/13 01:19:59;;;;;;;11.48;5.60;;;;;;;;;;5033630;28;93488;-71
2023/06/13 01:22:42;;;;;;;14.77;5.50;;;;;;;;;;5034023;28;92457;-71
2023/06/13 01:25:20;;;;;;;10.40;5.28;;;;;;;;;;5033981;28;93390;-71
2023/06/13 01:27:49;;;;;;;7.07;5.20;;;;;;;;;;5034187;28;93194;-71
2023/06/13 01:30:17;;;;;;;9.55;5.60;;;;;;;;;;5037277;28;92485;-71
2023/06/13 01:32:44;;;;;;;13.55;4.95;;;;;;;;;;5033803;28;93578;-71
2023/06/13 01:35:11;;;;;;;23.13;5.25;;;;;;;;;;5032290;28;94824;-71
2023/06/13 01:37:38;;;;;;;16.13;5.38;;;;;;;;;;5033880;28;95605;-70
2023/06/13 01:40:04;;;;;;;10.57;5.20;;;;;;;;;;5033409;27;93850;-71
2023/06/13 01:42:31;;;;;;;10.05;5.13;;;;;;;;;;5034306;28;92470;-71
2023/06/13 01:44:57;;;;;;;7.25;5.43;;;;;;;;;;5016102;28;94367;-71
2023/06/13 01:47:29;;;;;;;7.45;5.28;;;;;;;;;;5033697;27;93942;-71
2023/06/13 01:50:06;;;;;;;7.97;5.32;;;;;;;;;;5036975;28;92375;-71
2023/06/13 01:52:35;;;;;;;13.07;5.93;;;;;;;;;;5040471;28;92026;-71
2023/06/13 01:55:08;;;;;;;9.55;5.25;;;;;;;;;;5037069;28;92463;-71
2023/06/13 01:57:38;;;;;;;9.02;5.22;;;;;;;;;;5037609;28;93332;-71
2023/06/13 02:00:05;;;;;;;11.23;5.72;;;;;;;;;;5035527;28;95308;-70
2023/06/13 02:02:32;;;;;;;11.90;5.47;;;;;;;;;;5037277;28;92672;-71
2023/06/13 02:04:59;;;;;;;20.13;5.97;;;;;;;;;;5036535;28;93650;-71
2023/06/13 02:07:27;;;;;;;12.73;5.45;;;;;;;;;;5036968;27;93717;-71
2023/06/13 02:09:53;;;;;;;20.08;5.82;;;;;;;;;;5036991;27;92492;-71
2023/06/13 02:12:20;;;;;;;13.57;5.63;;;;;;;;;;5037040;28;93260;-71
2023/06/13 02:14:46;;;;;;;16.35;5.50;;;;;;;;;;5040269;28;94443;-71
2023/06/13 02:17:13;;;;;;;11.55;6.18;;;;;;;;;;5019584;28;93234;-70
2023/06/13 02:19:39;;;;;;;12.05;6.47;;;;;;;;;;5036844;28;93227;-70
2023/06/13 02:22:05;;;;;;;11.38;6.13;;;;;;;;;;5036884;28;92794;-70
2023/06/13 02:24:32;;;;;;;12.43;6.53;;;;;;;;;;5035172;28;95054;-71
2023/06/13 02:26:59;;;;;;;9.57;6.35;;;;;;;;;;5036155;28;93552;-70
2023/06/13 02:29:25;;;;;;;16.65;5.97;;;;;;;;;;5037071;28;92711;-70
2023/06/13 02:31:51;;;;;;;10.68;6.10;;;;;;;;;;5036768;28;93570;-71
2023/06/13 02:34:18;;;;;;;8.00;5.80;;;;;;;;;;5036340;28;93407;-71
2023/06/13 02:36:44;;;;;;;9.48;5.75;;;;;;;;;;5039333;28;92357;-71
2023/06/13 02:39:11;;;;;;;14.95;6.00;;;;;;;;;;5036675;28;93345;-71
2023/06/13 02:41:37;;;;;;;13.68;5.60;;;;;;;;;;5037048;28;91753;-71
2023/06/13 02:44:04;;;;;;;16.30;5.72;;;;;;;;;;5036306;28;92851;-70
2023/06/13 02:46:30;;;;;;;25.58;6.07;;;;;;;;;;5036383;28;93592;-70
2023/06/13 02:48:57;;;;;;;13.65;5.53;;;;;;;;;;5034707;28;95127;-70
2023/06/13 02:51:23;;;;;;;15.88;6.40;;;;;;;;;;5036171;27;95447;-70
2023/06/13 02:53:50;;;;;;;19.85;5.55;;;;;;;;;;5036405;28;93653;-71
2023/06/13 02:56:16;;;;;;;21.77;5.97;;;;;;;;;;5039309;28;92455;-70
2023/06/13 02:58:42;;;;;;;12.18;6.30;;;;;;;;;;5036112;27;93435;-71
2023/06/13 03:01:09;;;;;;;16.60;5.93;;;;;;;;;;5035422;27;92517;-70
2023/06/13 03:03:37;;;;;;;18.58;5.85;;;;;;;;;;5036681;28;94185;-70
2023/06/13 03:06:04;;;;;;;25.38;6.65;;;;;;;;;;5036306;27;91765;-70
2023/06/13 03:08:31;;;;;;;37.30;6.70;;;;;;;;;;5036673;28;92480;-70
2023/06/13 03:10:57;;;;;;;16.45;6.40;;;;;;;;;;5036018;28;93260;-71
2023/06/13 03:13:24;;;;;;;14.95;5.78;;;;;;;;;;5033892;28;95918;-70
2023/06/13 03:15:51;;;;;;;15.00;5.95;;;;;;;;;;5035991;28;92766;-71
2023/06/13 03:18:18;;;;;;;12.57;6.03;;;;;;;;;;5039296;27;94260;-70
2023/06/13 03:20:46;;;;;;;27.08;6.55;;;;;;;;;;5036565;28;92516;-71
2023/06/13 03:23:12;;;;;;;13.60;5.57;;;;;;;;;;5035464;27;93591;-70
2023/06/13 03:25:40;;;;;;;24.20;6.30;;;;;;;;;;5034896;28;93544;-70
2023/06/13 03:28:07;;;;;;;11.43;5.95;;;;;;;;;;5035884;28;92412;-70
2023/06/13 03:30:34;;;;;;;11.57;6.00;;;;;;;;;;5035749;28;93577;-71
2023/06/13 03:33:00;;;;;;;9.27;5.68;;;;;;;;;;5035388;28;93806;-71
2023/06/13 03:35:27;;;;;;;14.13;6.13;;;;;;;;;;5035868;27;92381;-71
2023/06/13 03:37:53;;;;;;;15.85;6.30;;;;;;;;;;5034362;27;94842;-70
2023/06/13 03:40:19;;;;;;;24.17;6.35;;;;;;;;;;5038764;28;94598;-71
2023/06/13 03:42:46;;;;;;;14.40;5.65;;;;;;;;;;5035548;27;93405;-70
2023/06/13 03:45:15;;;;;;;12.45;5.80;;;;;;;;;;5034901;28;93421;-71
2023/06/13 03:47:42;;;;;;;14.20;5.90;;;;;;;;;;5035024;28;92591;-70
2023/06/13 03:50:08;;;;;;;20.73;6.22;;;;;;;;;;5017766;28;94270;-71
2023/06/13 03:52:34;;;;;;;10.70;6.15;;;;;;;;;;5034964;27;93590;-70
2023/06/13 03:55:01;;;;;;;12.77;6.63;;;;;;;;;;5017679;28;91717;-70
2023/06/13 03:57:30;;;;;;;9.20;5.85;;;;;;;;;;5034872;27;92724;-70
2023/06/13 03:59:57;;;;;;;10.23;6.00;;;;;;;;;;5017609;28;94658;-70
2023/06/13 04:02:23;;;;;;;7.65;5.35;;;;;;;;;;5036902;27;94874;-70
2023/06/13 04:04:52;;;;;;;22.95;5.90;;;;;;;;;;5034870;28;93387;-70
2023/06/13 04:07:21;;;;;;;27.08;6.38;;;;;;;;;;5035013;28;92435;-70
2023/06/13 04:09:47;;;;;;;24.00;5.90;;;;;;;;;;5035591;28;94240;-69
2023/06/13 04:12:14;;;;;;;21.77;6.82;;;;;;;;;;5033295;27;93339;-69
2023/06/13 04:14:41;;;;;;;20.95;5.90;;;;;;;;;;5035247;28;92462;-69
2023/06/13 04:17:09;;;;;;;16.63;5.85;;;;;;;;;;5034640;28;93219;-69
2023/06/13 04:19:35;;;;;;;24.95;6.65;;;;;;;;;;5035225;28;92825;-69
2023/06/13 04:22:05;;;;;;;11.18;5.78;;;;;;;;;;5034685;28;92428;-70
2023/06/13 04:24:32;;;;;;;17.38;5.68;;;;;;;;;;5037463;28;93237;-70
2023/06/13 04:27:03;;;;;;;9.57;5.47;;;;;;;;;;5032747;28;94897;-70
2023/06/13 04:29:30;;;;;;;9.48;5.85;;;;;;;;;;5034975;28;95755;-70
2023/06/13 04:31:57;;;;;;;8.35;5.63;;;;;;;;;;5034367;28;93367;-70
2023/06/13 04:34:24;;;;;;;15.25;6.38;;;;;;;;;;5034844;28;92426;-70
2023/06/13 04:36:55;;;;;;;10.55;5.70;;;;;;;;;;5034669;28;93356;-69
2023/06/13 04:39:24;;;;;;;10.05;5.57;;;;;;;;;;5034363;27;93634;-69
2023/06/13 04:41:55;;;;;;;24.73;6.70;;;;;;;;;;5034730;27;92476;-69
2023/06/13 04:44:25;;;;;;;9.73;5.60;;;;;;;;;;5037971;28;93150;-69
2023/06/13 04:46:57;;;;;;;10.10;5.40;;;;;;;;;;5034381;28;92723;-69
2023/06/13 04:49:25;;;;;;;11.45;6.32;;;;;;;;;;5034556;28;92710;-69
2023/06/13 04:51:53;;;;;;;13.40;6.45;;;;;;;;;;5032643;28;97011;-70
2023/06/13 04:54:19;;;;;;;21.40;6.43;;;;;;;;;;5034445;27;92466;-69
2023/06/13 04:56:45;;;;;;;13.52;5.82;;;;;;;;;;5034223;28;93137;-69
2023/06/13 04:59:11;;;;;;;14.80;6.18;;;;;;;;;;5034164;27;93492;-69
2023/06/13 05:01:38;;;;;;;14.52;6.03;;;;;;;;;;5034195;27;92806;-69
2023/06/13 05:04:05;;;;;;;18.25;6.75;;;;;;;;;;5034100;28;93152;-71
2023/06/13 05:06:34;;;;;;;14.27;6.45;;;;;;;;;;5036922;28;93472;-70
2023/06/13 05:09:01;;;;;;;25.85;7.00;;;;;;;;;;5034837;28;92139;-69
2023/06/13 05:11:27;;;;;;;39.20;6.80;;;;;;;;;;5033685;28;93488;-70
2023/06/13 05:13:53;;;;;;;14.80;5.93;;;;;;;;;;5034084;28;92459;-69
2023/06/13 05:16:20;;;;;;;9.77;5.95;;;;;;;;;;5032803;28;94743;-69
2023/06/13 05:18:46;;;;;;;13.82;6.00;;;;;;;;;;5033739;28;93618;-70
2023/06/13 05:21:16;;;;;;;13.80;6.28;;;;;;;;;;5034044;28;92521;-69
2023/06/13 05:23:43;;;;;;;14.30;6.35;;;;;;;;;;5015587;28;93332;-69
2023/06/13 05:26:10;;;;;;;10.70;5.95;;;;;;;;;;5033418;28;93519;-69
2023/06/13 05:28:37;;;;;;;8.88;6.32;;;;;;;;;;5036879;28;92483;-69
2023/06/13 05:31:03;;;;;;;13.13;6.18;;;;;;;;;;5033865;28;92512;-69
2023/06/13 05:33:30;;;;;;;9.40;5.85;;;;;;;;;;5034105;28;91698;-70
2023/06/13 05:35:56;;;;;;;12.40;6.45;;;;;;;;;;5034136;28;92604;-69
2023/06/13 05:38:24;;;;;;;8.43;6.13;;;;;;;;;;5033409;28;93499;-69
2023/06/13 05:40:50;;;;;;;14.60;6.30;;;;;;;;;;5032419;28;94862;-70
2023/06/13 05:43:19;;;;;;;9.70;6.18;;;;;;;;;;5033574;27;95520;-69
2023/06/13 05:45:47;;;;;;;12.52;6.10;;;;;;;;;;5033150;28;93719;-70
2023/06/13 05:48:14;;;;;;;7.03;5.85;;;;;;;;;;5033323;28;92883;-70
2023/06/13 05:50:40;;;;;;;9.68;6.10;;;;;;;;;;5036712;28;93080;-69
2023/06/13 05:53:07;;;;;;;17.17;6.85;;;;;;;;;;5033530;28;92445;-69
2023/06/13 05:55:33;;;;;;;13.48;6.68;;;;;;;;;;5033393;28;93152;-69
2023/06/13 05:57:59;;;;;;;12.57;6.30;;;;;;;;;;5033728;27;92791;-69
2023/06/13 06:00:26;;;;;;;13.70;5.82;;;;;;;;;;5033398;27;92432;-70
2023/06/13 06:02:53;;;;;;;14.00;6.13;;;;;;;;;;5033481;28;92964;-70
2023/06/13 06:05:21;;;;;;;13.88;6.63;;;;;;;;;;5031447;28;96411;-69
2023/06/13 06:07:47;;;;;;;21.65;6.35;;;;;;;;;;5033399;28;92439;-69
2023/06/13 06:10:14;;;;;;;17.67;6.82;;;;;;;;;;5033304;27;92446;-70
2023/06/13 06:12:41;;;;;;;10.65;5.93;;;;;;;;;;5036077;28;93408;-70
2023/06/13 06:15:07;;;;;;;15.05;6.40;;;;;;;;;;5033131;28;93221;-70
2023/06/13 06:17:33;;;;;;;11.45;5.95;;;;;;;;;;5033563;28;94882;-70
2023/06/13 06:20:00;;;;;;;10.40;5.78;;;;;;;;;;5033586;28;92450;-69
2023/06/13 06:22:27;;;;;;;12.77;5.70;;;;;;;;;;5033519;28;92054;-70
2023/06/13 06:24:53;;;;;;;11.55;5.60;;;;;;;;;;5033381;28;94977;-70
2023/06/13 06:27:19;;;;;;;11.85;5.78;;;;;;;;;;5033204;27;92466;-70
2023/06/13 06:29:45;;;;;;;8.93;5.03;;;;;;;;;;5031792;28;95063;-70
2023/06/13 06:32:12;;;;;;;7.38;4.72;;;;;;;;;;5032989;28;93477;-70
2023/06/13 06:34:38;;;;;;;11.77;5.63;;;;;;;;;;5036794;27;92406;-70
2023/06/13 06:37:04;;;;;;;9.68;5.47;;;;;;;;;;5036398;28;93508;-70
2023/06/13 06:39:31;;;;;;;12.57;6.05;;;;;;;;;;5036661;27;92509;-69
2023/06/13 06:41:57;;;;;;;13.88;5.40;;;;;;;;;;5036249;28;93483;-70
2023/06/13 06:44:24;;;;;;;13.40;5.68;;;;;;;;;;5035674;28;93531;-70
2023/06/13 06:47:08;;;;;;;10.85;5.72;;;;;;;;;;5037107;28;91706;-70
2023/06/13 06:49:35;;;;;;;10.25;4.97;;;;;;;;;;5036468;27;92557;-70
2023/06/13 06:52:01;;;;;;;12.32;5.57;;;;;;;;;;5036235;27;92405;-70
2023/06/13 06:54:28;;;;;;;12.57;5.22;;;;;;;;;;5037591;28;94890;-70
2023/06/13 06:56:55;;;;;;;11.88;4.95;;;;;;;;;;5035775;28;93943;-70
2023/06/13 06:59:21;;;;;;;14.07;5.45;;;;;;;;;;5036207;28;92383;-70
2023/06/13 07:01:48;;;;;;;11.55;5.53;;;;;;;;;;5036072;28;93174;-70
2023/06/13 07:04:17;;;;;;;12.35;4.78;;;;;;;;;;5035683;27;93405;-70
2023/06/13 07:06:44;;;;;;;12.70;5.20;;;;;;;;;;5018735;28;92473;-70
2023/06/13 07:09:11;;;;;;;9.88;5.13;;;;;;;;;;5035923;28;93323;-70
2023/06/13 07:11:37;;;;;;;12.27;5.10;;;;;;;;;;5036210;28;92735;-70
2023/06/13 07:14:03;;;;;;;15.95;5.22;;;;;;;;;;5036492;28;92712;-69
2023/06/13 07:16:30;;;;;;;11.70;5.25;;;;;;;;;;5038712;28;93204;-69
2023/06/13 07:18:56;;;;;;;11.82;4.97;;;;;;;;;;5034574;28;94823;-70
2023/06/13 07:21:22;;;;;;;12.18;4.75;;;;;;;;;;5035924;28;95990;-70
2023/06/13 07:23:49;;;;;;;9.52;4.50;;;;;;;;;;5034931;27;93946;-70
2023/06/13 07:26:31;;;;;;;6.43;4.10;;;;;;;;;;5035310;28;92555;-70
2023/06/13 07:28:59;;;;;;;14.05;4.78;;;;;;;;;;5036042;28;92398;-70
2023/06/13 07:31:25;;;;;;;10.10;4.65;;;;;;;;;;5035733;28;93644;-70
2023/06/13 07:33:52;;;;;;;8.27;4.55;;;;;;;;;;5036053;28;92560;-70
2023/06/13 07:36:19;;;;;;;13.00;4.32;;;;;;;;;;5035830;28;93340;-72
2023/06/13 07:38:45;;;;;;;12.57;4.68;;;;;;;;;;5038248;28;93561;-70
2023/06/13 07:41:11;;;;;;;10.68;4.60;;;;;;;;;;5035699;28;93224;-70
2023/06/13 07:43:38;;;;;;;11.98;3.97;;;;;;;;;;5033893;28;96864;-70
2023/06/13 07:46:06;;;;;;;7.75;3.97;;;;;;;;;;5035188;27;92515;-70
2023/06/13 07:48:32;;;;;;;10.88;4.32;;;;;;;;;;5035220;28;93145;-70
2023/06/13 07:50:58;;;;;;;10.45;3.95;;;;;;;;;;5034818;27;93483;-70
2023/06/13 07:53:24;;;;;;;4.38;3.47;;;;;;;;;;5035214;28;92956;-70
2023/06/13 07:55:53;;;;;;;10.57;3.83;;;;;;;;;;5035107;28;93288;-70
2023/06/13 07:58:19;;;;;;;8.98;3.65;;;;;;;;;;5035050;28;93679;-70
2023/06/13 08:00:46;;;;;;;15.65;4.45;;;;;;;;;;5038851;27;91950;-70
2023/06/13 08:03:13;;;;;;;8.82;4.57;;;;;;;;;;5035299;28;94683;-70
2023/06/13 08:05:39;;;;;;;12.48;4.40;;;;;;;;;;5034802;28;92615;-70
2023/06/13 08:08:06;;;;;;;5.82;3.72;;;;;;;;;;5033678;28;94811;-70
2023/06/13 08:10:32;;;;;;;7.45;3.78;;;;;;;;;;5034955;28;92727;-70
2023/06/13 08:13:00;;;;;;;15.10;4.55;;;;;;;;;;5034992;27;92491;-70
2023/06/13 08:15:26;;;;;;;4.30;3.83;;;;;;;;;;5034897;27;93151;-70
2023/06/13 08:17:54;;;;;;;8.80;4.07;;;;;;;;;;5034243;28;93820;-70
2023/06/13 08:20:21;;;;;;;8.80;3.70;;;;;;;;;;5035417;28;92415;-70
2023/06/13 08:22:47;;;;;;;11.88;3.70;;;;;;;;;;5020078;28;93661;-70
2023/06/13 08:25:14;;;;;;;13.55;4.30;;;;;;;;;;5035171;28;91790;-70
2023/06/13 08:27:41;;;;;;;6.75;3.20;;;;;;;;;;5017194;28;93520;-70
2023/06/13 08:30:08;;;;;;;16.60;3.97;;;;;;;;;;5034600;28;93688;-70
2023/06/13 08:32:34;;;;;;;4.13;3.25;;;;;;;;;;5015000;27;94909;-71
2023/06/13 08:35:01;;;;;;;17.73;3.80;;;;;;;;;;5017319;28;95426;-70
2023/06/13 08:37:28;;;;;;;12.15;3.63;;;;;;;;;;5016847;28;93600;-70
2023/06/13 08:39:54;;;;;;;4.57;3.78;;;;;;;;;;5034553;28;92449;-70
2023/06/13 08:42:21;;;;;;;10.90;3.50;;;;;;;;;;5034934;27;93196;-70
2023/06/13 08:44:48;;;;;;;13.35;3.85;;;;;;;;;;5019461;28;93531;-71
2023/06/13 08:47:16;;;;;;;12.30;3.83;;;;;;;;;;5034665;27;93323;-71
2023/06/13 08:50:03;;;;;;;6.22;3.33;;;;;;;;;;5034737;28;92911;-71
2023/06/13 08:52:31;;;;;;;9.07;3.80;;;;;;;;;;5034114;28;92465;-71
2023/06/13 08:54:58;;;;;;;11.35;4.03;;;;;;;;;;5034698;28;94284;-71
2023/06/13 08:57:42;;;;;;;9.73;3.70;;;;;;;;;;5016426;28;95903;-71
2023/06/13 09:00:12;;;;;;;6.72;3.58;;;;;;;;;;5034091;28;92467;-72
2023/06/13 09:02:42;;;;;;;4.43;3.47;;;;;;;;;;5034150;28;93362;-72
2023/06/13 09:05:10;;;;;;;;;;;;;;;;;;5037391;28;93277;-71
2023/06/13 09:07:36;;;;;;;9.35;3.78;;;;;;;;;;5035267;28;122791;-71
2023/06/13 09:10:03;;;;;;;5.93;3.75;;;;;;;;;;5034299;28;93290;-71
2023/06/13 09:12:29;;;;;;;9.25;4.05;;;;;;;;;;5034014;28;92491;-71
2023/06/13 09:14:56;;;;;;;7.13;3.83;;;;;;;;;;5035057;27;94622;-71
2023/06/13 09:17:23;;;;;;;10.27;4.13;;;;;;;;;;5033778;28;93648;-71
2023/06/13 09:19:49;;;;;;;7.10;3.63;;;;;;;;;;5034040;28;92458;-71
2023/06/13 09:22:17;;;;;;;8.45;4.18;;;;;;;;;;5032508;28;94718;-71
2023/06/13 09:24:44;;;;;;;13.27;4.00;;;;;;;;;;5033225;28;93850;-72
2023/06/13 09:27:11;;;;;;;8.73;3.60;;;;;;;;;;5036842;27;92477;-71
2023/06/13 09:29:37;;;;;;;22.58;4.22;;;;;;;;;;5034221;28;93225;-71
2023/06/13 09:32:05;;;;;;;12.95;4.10;;;;;;;;;;5034227;28;92882;-71
2023/06/13 09:34:32;;;;;;;13.60;3.40;;;;;;;;;;5033723;27;93391;-71
2023/06/13 09:36:59;;;;;;;28.17;3.85;;;;;;;;;;5033453;28;93594;-71
2023/06/13 09:39:27;;;;;;;12.13;3.85;;;;;;;;;;5034101;27;92458;-71
2023/06/13 09:41:58;;;;;;;8.45;3.53;;;;;;;;;;5033750;28;93638;-71
2023/06/13 09:44:24;;;;;;;11.85;3.80;;;;;;;;;;5033216;28;93921;-71
2023/06/13 09:46:54;;;;;;;13.68;4.28;;;;;;;;;;5032748;28;94848;-71
2023/06/13 09:49:20;;;;;;;7.93;4.13;;;;;;;;;;5034819;28;95538;-72
2023/06/13 09:51:47;;;;;;;12.15;3.95;;;;;;;;;;5033745;28;92465;-71
2023/06/13 09:54:14;;;;;;;8.55;3.80;;;;;;;;;;5033644;28;93335;-71
2023/06/13 09:56:41;;;;;;;13.60;4.20;;;;;;;;;;5033393;28;93636;-71
2023/06/13 09:59:08;;;;;;;5.00;3.63;;;;;;;;;;5034119;28;92463;-71
2023/06/13 10:01:34;;;;;;;10.73;4.07;;;;;;;;;;5033059;28;93196;-71
2023/06/13 10:04:02;;;;;;;6.15;3.50;;;;;;;;;;5033886;28;92710;-72
2023/06/13 10:06:29;;;;;;;7.93;3.60;;;;;;;;;;5033382;28;92462;-71
2023/06/13 10:08:55;;;;;;;14.32;3.50;;;;;;;;;;5033523;27;92418;-71
2023/06/13 10:11:23;;;;;;;8.57;3.90;;;;;;;;;;5038002;27;95995;-71
2023/06/13 10:14:01;;;;;;;5.35;3.58;;;;;;;;;;5036912;27;95791;-72
2023/06/13 10:16:33;;;;;;;12.00;3.58;;;;;;;;;;5037063;28;94245;-72
2023/06/13 10:19:00;;;;;;;9.75;3.85;;;;;;;;;;5036786;27;92473;-72
2023/06/13 10:21:27;;;;;;;13.20;4.15;;;;;;;;;;5036913;28;93296;-72
2023/06/13 10:24:02;;;;;;;5.60;3.38;;;;;;;;;;5037101;28;94343;-72
2023/06/13 10:26:36;;;;;;;12.60;3.70;;;;;;;;;;5036757;27;92520;-72
2023/06/13 10:29:15;;;;;;;7.00;3.40;;;;;;;;;;5037712;28;92023;-72
2023/06/13 10:32:00;;;;;;;7.22;3.58;;;;;;;;;;5036558;28;93661;-72
2023/06/13 10:34:37;;;;;;;12.18;3.65;;;;;;;;;;5022435;28;92535;-72
2023/06/13 10:37:23;;;;;;;7.47;4.03;;;;;;;;;;5034660;28;95846;-72
2023/06/13 10:39:58;;;;;;;9.48;3.50;;;;;;;;;;5036810;27;92423;-72
2023/06/13 10:42:31;;;;;;;17.83;3.30;;;;;;;;;;5037104;28;94479;-72
2023/06/13 10:45:07;;;;;;;5.97;3.58;;;;;;;;;;5036137;28;93639;-72
2023/06/13 10:47:36;;;;;;;4.72;3.63;;;;;;;;;;5036699;28;92402;-72
2023/06/13 10:50:03;;;;;;;5.93;3.80;;;;;;;;;;5036231;28;93132;-72
2023/06/13 10:52:30;;;;;;;12.57;4.13;;;;;;;;;;5017830;28;93384;-72
2023/06/13 10:55:01;;;;;;;4.10;3.58;;;;;;;;;;5036867;27;91684;-73
2023/06/13 10:57:47;;;;;;;9.15;3.80;;;;;;;;;;5038902;28;92507;-72
2023/06/13 11:00:44;;;;;;;8.35;3.50;;;;;;;;;;5036649;28;92418;-72
2023/06/13 11:03:11;;;;;;;10.20;3.75;;;;;;;;;;5021881;28;94875;-72
2023/06/13 11:05:44;;;;;;;8.15;4.07;;;;;;;;;;5035855;28;92879;-72
2023/06/13 11:08:18;;;;;;;9.70;3.90;;;;;;;;;;5035848;27;92419;-72
2023/06/13 11:10:45;;;;;;;9.00;3.70;;;;;;;;;;5018081;28;93126;-72
2023/06/13 11:13:22;;;;;;;7.20;4.20;;;;;;;;;;5035714;28;93247;-72
2023/06/13 11:15:55;;;;;;;5.63;3.92;;;;;;;;;;5035789;28;92473;-72
2023/06/13 11:18:21;;;;;;;6.55;4.05;;;;;;;;;;5018776;28;93091;-72
2023/06/13 11:20:54;;;;;;;4.88;3.95;;;;;;;;;;5015797;28;91681;-72
2023/06/13 11:23:24;;;;;;;14.80;3.95;;;;;;;;;;5015686;28;92834;-72
2023/06/13 11:25:51;;;;;;;7.97;3.83;;;;;;;;;;5014951;28;93632;-71
2023/06/13 11:28:18;;;;;;;9.65;4.07;;;;;;;;;;5014023;28;94872;-72
2023/06/13 11:30:47;;;;;;;4.32;3.70;;;;;;;;;;5015555;28;95736;-72
2023/06/13 11:33:17;;;;;;;15.23;4.38;;;;;;;;;;5014270;28;93622;-72
2023/06/13 11:35:47;;;;;;;9.00;4.30;;;;;;;;;;5015343;28;92562;-72
2023/06/13 11:38:18;;;;;;;15.38;3.97;;;;;;;;;;5015597;28;93347;-71
2023/06/13 11:40:46;;;;;;;6.15;3.80;;;;;;;;;;5018413;28;93283;-72
2023/06/13 11:43:13;;;;;;;7.93;4.00;;;;;;;;;;5015358;28;92372;-71
2023/06/13 11:45:40;;;;;;;7.25;4.05;;;;;;;;;;5015527;28;93873;-72
2023/06/13 11:48:07;;;;;;;4.97;3.78;;;;;;;;;;5033082;28;92561;-72
2023/06/13 11:50:33;;;;;;;4.60;3.53;;;;;;;;;;5017641;28;94683;-71
2023/06/13 11:53:03;;;;;;;8.88;4.25;;;;;;;;;;5033291;27;96330;-72
2023/06/13 11:55:29;;;;;;;5.65;3.85;;;;;;;;;;5035675;27;92412;-72
2023/06/13 11:57:56;;;;;;;7.80;4.20;;;;;;;;;;5035148;27;93081;-72
2023/06/13 12:00:26;;;;;;;9.85;3.90;;;;;;;;;;5035388;27;93514;-72
2023/06/13 12:02:52;;;;;;;6.75;4.20;;;;;;;;;;5037659;28;92457;-72
2023/06/13 12:05:19;;;;;;;10.05;4.13;;;;;;;;;;5034723;27;93527;-71
2023/06/13 12:07:46;;;;;;;5.50;4.00;;;;;;;;;;5033899;28;94443;-72
2023/06/13 12:10:13;;;;;;;7.65;3.85;;;;;;;;;;5035203;27;93254;-72
2023/06/13 12:12:39;;;;;;;10.88;4.10;;;;;;;;;;5034642;28;93739;-71
2023/06/13 12:15:13;;;;;;;7.90;4.28;;;;;;;;;;5035522;27;92529;-71
2023/06/13 12:17:57;;;;;;;4.53;3.95;;;;;;;;;;5033534;28;94969;-72
2023/06/13 12:20:24;;;;;;;6.00;4.13;;;;;;;;;;5035402;28;96394;-71
2023/06/13 12:23:01;;;;;;;5.22;3.88;;;;;;;;;;5035004;28;92487;-72
2023/06/13 12:25:28;;;;;;;9.73;3.92;;;;;;;;;;5037754;27;94204;-72
2023/06/13 12:27:55;;;;;;;9.00;4.47;;;;;;;;;;5032967;27;92591;-71
2023/06/13 12:30:22;;;;;;;6.97;3.70;;;;;;;;;;5035108;28;94288;-71
2023/06/13 12:32:48;;;;;;;6.88;4.25;;;;;;;;;;5033539;27;93540;-71
2023/06/13 12:35:21;;;;;;;6.35;3.97;;;;;;;;;;5035231;27;91712;-71
2023/06/13 12:38:05;;;;;;;6.53;3.70;;;;;;;;;;5034800;27;92367;-71
2023/06/13 12:40:32;;;;;;;8.30;3.72;;;;;;;;;;5034419;28;93624;-71
2023/06/13 12:43:00;;;;;;;6.72;3.53;;;;;;;;;;5032851;27;94875;-72
2023/06/13 12:45:30;;;;;;;4.80;4.05;;;;;;;;;;5034082;28;95562;-71
2023/06/13 12:47:57;;;;;;;4.85;3.53;;;;;;;;;;5037843;28;94926;-71
2023/06/13 12:50:24;;;;;;;7.30;4.03;;;;;;;;;;5034405;28;93409;-71
2023/06/13 12:53:01;;;;;;;8.98;4.22;;;;;;;;;;5034346;28;93693;-71
2023/06/13 12:55:28;;;;;;;9.38;3.88;;;;;;;;;;5034486;27;92466;-71
2023/06/13 12:57:56;;;;;;;7.78;4.18;;;;;;;;;;5034730;28;94501;-71
2023/06/13 13:00:22;;;;;;;6.57;4.22;;;;;;;;;;5034510;28;92777;-71
2023/06/13 13:02:50;;;;;;;7.57;4.10;;;;;;;;;;5034268;28;92434;-71
2023/06/13 13:05:17;;;;;;;6.70;4.10;;;;;;;;;;5034145;28;93133;-72
2023/06/13 13:08:01;;;;;;;6.85;3.83;;;;;;;;;;5033106;28;95137;-72
2023/06/13 13:10:30;;;;;;;9.25;4.65;;;;;;;;;;5037382;28;92379;-71
2023/06/13 13:12:57;;;;;;;12.48;3.95;;;;;;;;;;5033944;28;93669;-72
2023/06/13 13:15:23;;;;;;;5.78;3.78;;;;;;;;;;5034149;27;92523;-72
2023/06/13 13:17:50;;;;;;;9.95;4.05;;;;;;;;;;5033981;28;93229;-72
2023/06/13 13:20:16;;;;;;;7.68;4.00;;;;;;;;;;5034039;27;93419;-71
2023/06/13 13:22:43;;;;;;;8.98;4.47;;;;;;;;;;5034015;28;92735;-71
2023/06/13 13:25:09;;;;;;;7.60;4.10;;;;;;;;;;5034476;27;93155;-71
2023/06/13 13:27:35;;;;;;;9.05;4.22;;;;;;;;;;5033346;28;93511;-72
2023/06/13 13:30:02;;;;;;;9.98;3.97;;;;;;;;;;5037635;28;92468;-72
2023/06/13 13:32:28;;;;;;;9.60;4.10;;;;;;;;;;5031540;27;95875;-72
2023/06/13 13:34:55;;;;;;;12.55;4.05;;;;;;;;;;5033984;28;92392;-72
2023/06/13 13:37:21;;;;;;;8.82;4.13;;;;;;;;;;5034595;28;92725;-72
2023/06/13 13:39:48;;;;;;;9.57;4.07;;;;;;;;;;5015969;28;93218;-71
2023/06/13 13:42:14;;;;;;;7.88;4.68;;;;;;;;;;5033797;28;92476;-72
2023/06/13 13:44:51;;;;;;;4.28;3.80;;;;;;;;;;5020262;28;93433;-72
2023/06/13 13:47:18;;;;;;;6.20;4.28;;;;;;;;;;5037350;27;94188;-72
2023/06/13 13:49:44;;;;;;;8.93;4.18;;;;;;;;;;5038218;27;91744;-72
2023/06/13 13:52:11;;;;;;;7.05;3.85;;;;;;;;;;5040561;27;92829;-71
2023/06/13 13:54:37;;;;;;;5.45;4.15;;;;;;;;;;5037628;27;92709;-72
2023/06/13 13:57:03;;;;;;;9.50;3.90;;;;;;;;;;5035624;28;94772;-72
2023/06/13 13:59:30;;;;;;;13.20;4.85;;;;;;;;;;5036820;28;93999;-72
2023/06/13 14:01:56;;;;;;;11.68;4.28;;;;;;;;;;5037424;28;92425;-72
2023/06/13 14:04:23;;;;;;;10.95;4.32;;;;;;;;;;5037388;28;93318;-72
2023/06/13 14:06:49;;;;;;;11.30;4.18;;;;;;;;;;5036766;27;94009;-71
2023/06/13 14:09:16;;;;;;;8.75;4.30;;;;;;;;;;5036787;28;92486;-72
2023/06/13 14:11:43;;;;;;;7.70;3.92;;;;;;;;;;5037146;28;93340;-72
2023/06/13 14:14:09;;;;;;;6.80;3.88;;;;;;;;;;5040122;27;91921;-72
2023/06/13 14:16:36;;;;;;;6.28;3.85;;;;;;;;;;5036670;28;92456;-72
2023/06/13 14:19:02;;;;;;;8.05;3.70;;;;;;;;;;5036892;27;93856;-72
2023/06/13 14:21:28;;;;;;;6.95;4.28;;;;;;;;;;5035153;27;94875;-72
2023/06/13 14:23:58;;;;;;;11.48;4.25;;;;;;;;;;5036843;28;94238;-72
2023/06/13 14:26:27;;;;;;;4.93;3.90;;;;;;;;;;5035915;28;93489;-72
2023/06/13 14:28:53;;;;;;;6.28;3.65;;;;;;;;;;5036407;28;92784;-71
2023/06/13 14:31:20;;;;;;;5.75;3.83;;;;;;;;;;5036883;27;94615;-72
2023/06/13 14:33:48;;;;;;;13.25;4.15;;;;;;;;;;5036352;27;93436;-72
2023/06/13 14:36:15;;;;;;;10.38;4.00;;;;;;;;;;5039489;28;92439;-73
2023/06/13 14:38:43;;;;;;;21.05;4.13;;;;;;;;;;5037351;28;93815;-71
2023/06/13 14:41:10;;;;;;;11.70;4.60;;;;;;;;;;5036272;27;92616;-72